createdAt,value
2019-02-21T00:00:24.507Z,48.29
2019-02-21T00:02:49.546Z,48.01
2019-02-21T00:05:15.535Z,48.40
2019-02-21T00:07:41.611Z,48.06
2019-02-21T00:10:07.661Z,48.51
2019-02-21T00:12:33.638Z,48.04
2019-02-21T00:14:59.643Z,48.26
2019-02-21T00:17:25.615Z,48.39
2019-02-21T00:19:51.591Z,48.18
2019-02-21T00:22:18.635Z,48.47
2019-02-21T00:24:44.604Z,48.67
2019-02-21T00:27:10.582Z,48.79
2019-02-21T00:29:36.613Z,48.71
2019-02-21T00:32:02.609Z,48.57
2019-02-21T00:34:28.599Z,48.54
2019-02-21T00:36:54.617Z,48.69
2019-02-21T00:39:20.587Z,48.88
2019-02-21T00:41:46.566Z,48.87
2019-02-21T00:44:12.576Z,48.88
2019-02-21T00:46:38.549Z,48.98
2019-02-21T00:49:04.535Z,48.98
2019-02-21T00:51:30.529Z,48.80
2019-02-21T00:53:56.527Z,48.78
2019-02-21T00:56:22.497Z,48.74
2019-02-21T00:58:48.523Z,48.99
2019-02-21T01:01:14.515Z,49.00
2019-02-21T01:03:40.497Z,49.13
2019-02-21T01:06:06.509Z,49.21
2019-02-21T01:08:32.568Z,49.10
2019-02-21T01:10:58.539Z,49.25
2019-02-21T01:13:24.543Z,49.15
2019-02-21T01:15:50.517Z,49.17
2019-02-21T01:18:16.557Z,49.20
2019-02-21T01:20:42.528Z,49.16
2019-02-21T01:23:08.495Z,48.95
2019-02-21T01:25:34.499Z,48.61
2019-02-21T01:28:00.559Z,49.13
2019-02-21T01:30:26.540Z,49.25
2019-02-21T01:32:52.515Z,49.29
2019-02-21T01:35:18.502Z,49.25
2019-02-21T01:37:44.504Z,49.37
2019-02-21T01:40:10.511Z,49.19
2019-02-21T01:42:36.513Z,49.35
2019-02-21T01:45:02.595Z,49.29
2019-02-21T01:47:28.572Z,49.34
2019-02-21T01:49:54.575Z,49.43
2019-02-21T01:52:20.552Z,49.42
2019-02-21T01:54:46.551Z,49.44
2019-02-21T01:57:12.601Z,49.48
2019-02-21T01:59:38.691Z,49.42
2019-02-21T02:02:04.786Z,49.44
2019-02-21T02:04:30.772Z,49.47
2019-02-21T02:06:56.770Z,49.43
2019-02-21T02:09:22.763Z,49.46
2019-02-21T02:11:48.736Z,49.46
2019-02-21T02:14:14.725Z,49.43
2019-02-21T02:16:40.707Z,49.41
2019-02-21T02:19:06.688Z,49.37
2019-02-21T02:21:32.707Z,49.27
2019-02-21T02:23:58.670Z,49.41
2019-02-21T02:26:24.652Z,49.22
2019-02-21T02:28:50.629Z,49.40
2019-02-21T02:31:22.741Z,49.43
2019-02-21T02:33:44.314Z,49.38
2019-02-21T02:36:10.316Z,49.36
2019-02-21T02:38:36.288Z,49.34
2019-02-21T02:41:02.288Z,49.33
2019-02-21T02:43:28.290Z,49.33
2019-02-21T02:45:54.260Z,49.30
2019-02-21T02:48:20.238Z,49.33
2019-02-21T02:50:46.217Z,49.30
2019-02-21T02:53:12.238Z,49.30
2019-02-21T02:55:38.226Z,49.30
2019-02-21T02:58:06.401Z,49.32
2019-02-21T03:00:31.928Z,49.34
2019-02-21T03:02:57.986Z,49.32
2019-02-21T03:05:23.952Z,49.32
2019-02-21T03:07:49.938Z,49.31
2019-02-21T03:10:15.907Z,49.34
2019-02-21T03:12:41.994Z,49.33
2019-02-21T03:15:07.992Z,49.33
2019-02-21T03:17:33.980Z,49.35
2019-02-21T03:19:59.997Z,49.33
2019-02-21T03:22:25.988Z,49.35
2019-02-21T03:24:52.026Z,49.31
2019-02-21T03:27:18.021Z,49.34
2019-02-21T03:29:44.007Z,49.36
2019-02-21T03:32:09.985Z,49.35
2019-02-21T03:34:36.036Z,49.35
2019-02-21T03:37:02.005Z,49.39
2019-02-21T03:39:27.996Z,49.36
2019-02-21T03:41:53.964Z,49.37
2019-02-21T03:44:19.969Z,49.37
2019-02-21T03:46:45.952Z,49.37
2019-02-21T03:49:12.009Z,49.43
2019-02-21T03:51:38.022Z,49.42
2019-02-21T03:54:04.014Z,49.43
2019-02-21T03:56:29.983Z,49.45
2019-02-21T03:58:55.966Z,49.47
2019-02-21T04:01:21.942Z,49.45
2019-02-21T04:03:47.911Z,49.44
2019-02-21T04:06:13.905Z,49.47
2019-02-21T04:08:39.883Z,49.47
2019-02-21T04:11:05.953Z,49.47
2019-02-21T04:13:31.934Z,49.47
2019-02-21T04:15:57.930Z,49.45
2019-02-21T04:18:23.904Z,49.46
2019-02-21T04:20:49.999Z,49.48
2019-02-21T04:23:16.035Z,49.48
2019-02-21T04:25:42.066Z,49.48
2019-02-21T04:28:08.052Z,49.45
2019-02-21T04:30:34.027Z,49.46
2019-02-21T04:33:00.029Z,49.45
2019-02-21T04:35:26.046Z,49.45
2019-02-21T04:37:52.027Z,49.44
2019-02-21T04:40:18.010Z,49.47
2019-02-21T04:42:43.994Z,49.49
2019-02-21T04:45:10.034Z,49.49
2019-02-21T04:47:36.102Z,49.48
2019-02-21T04:50:02.079Z,49.48
2019-02-21T04:52:28.059Z,49.47
2019-02-21T04:54:54.038Z,49.49
2019-02-21T04:57:20.131Z,49.48
2019-02-21T04:59:46.108Z,49.47
2019-02-21T05:02:12.099Z,49.49
2019-02-21T05:04:38.080Z,49.49
2019-02-21T05:07:04.056Z,49.49
2019-02-21T05:09:30.071Z,49.48
2019-02-21T05:11:56.068Z,49.48
2019-02-21T05:14:22.038Z,49.49
2019-02-21T05:16:48.020Z,49.47
2019-02-21T05:19:13.988Z,49.49
2019-02-21T05:21:39.960Z,49.35
2019-02-21T05:24:05.963Z,49.42
2019-02-21T05:26:32.016Z,49.60
2019-02-21T05:28:57.992Z,49.60
2019-02-21T05:31:23.974Z,49.62
2019-02-21T05:33:49.940Z,49.61
2019-02-21T05:36:17.355Z,49.56
2019-02-21T05:38:43.305Z,49.55
2019-02-21T05:41:09.344Z,49.56
2019-02-21T05:43:37.281Z,49.56
2019-02-21T05:46:03.045Z,49.57
2019-02-21T05:48:29.036Z,49.52
2019-02-21T05:50:55.014Z,49.53
2019-02-21T05:53:21.022Z,49.47
2019-02-21T05:55:46.991Z,49.49
2019-02-21T05:58:12.994Z,49.46
2019-02-21T06:00:39.059Z,49.50
2019-02-21T06:03:05.032Z,49.49
2019-02-21T06:05:31.093Z,49.50
2019-02-21T06:07:57.070Z,49.48
2019-02-21T06:10:23.157Z,49.52
2019-02-21T06:12:49.151Z,49.53
2019-02-21T06:15:18.116Z,49.53
2019-02-21T06:17:42.960Z,49.49
2019-02-21T06:20:08.955Z,49.48
2019-02-21T06:22:34.970Z,49.48
2019-02-21T06:25:01.019Z,49.46
2019-02-21T06:27:27.001Z,49.39
2019-02-21T06:29:52.999Z,49.39
2019-02-21T06:32:18.981Z,49.33
2019-02-21T06:34:44.955Z,49.41
2019-02-21T06:37:12.731Z,49.48
2019-02-21T06:39:38.946Z,49.21
2019-02-21T06:42:05.017Z,49.42
2019-02-21T06:44:31.111Z,49.39
2019-02-21T06:46:57.164Z,49.38
2019-02-21T06:49:32.064Z,49.39
2019-02-21T06:51:50.957Z,49.39
2019-02-21T06:54:16.945Z,49.42
2019-02-21T06:56:43.013Z,49.39
2019-02-21T06:59:09.099Z,49.37
2019-02-21T07:01:35.163Z,49.38
2019-02-21T07:04:01.920Z,49.32
2019-02-21T07:06:31.916Z,49.33
2019-02-21T07:08:55.937Z,49.31
2019-02-21T07:11:21.985Z,49.32
2019-02-21T07:13:48.004Z,49.26
2019-02-21T07:16:15.017Z,49.21
2019-02-21T07:18:41.063Z,49.15
2019-02-21T07:21:07.094Z,49.08
2019-02-21T07:23:43.128Z,49.03
2019-02-21T07:26:00.888Z,49.37
2019-02-21T07:28:27.865Z,49.44
2019-02-21T07:30:53.930Z,49.59
2019-02-21T07:33:28.260Z,49.60
2019-02-21T07:35:47.739Z,49.40
2019-02-21T07:38:13.726Z,49.58
2019-02-21T07:40:39.701Z,49.96
2019-02-21T07:43:05.684Z,49.97
2019-02-21T07:45:31.669Z,49.90
2019-02-21T07:47:58.271Z,49.87
2019-02-21T07:50:24.261Z,50.03
2019-02-21T07:52:59.710Z,50.08
2019-02-21T07:55:18.026Z,50.05
2019-02-21T07:57:44.104Z,49.96
2019-02-21T08:00:10.187Z,49.88
2019-02-21T08:02:36.178Z,49.88
2019-02-21T08:05:02.468Z,49.82
2019-02-21T08:07:28.720Z,49.79
2019-02-21T08:09:54.717Z,49.73
2019-02-21T08:12:23.188Z,49.70
2019-02-21T08:14:48.481Z,49.67
2019-02-21T08:17:16.334Z,49.62
2019-02-21T08:19:42.212Z,49.63
2019-02-21T08:22:08.210Z,49.58
2019-02-21T08:24:34.180Z,49.69
2019-02-21T08:27:00.178Z,49.87
2019-02-21T08:29:26.153Z,49.88
2019-02-21T08:31:52.191Z,49.93
2019-02-21T08:34:18.177Z,49.92
2019-02-21T08:36:44.156Z,49.88
2019-02-21T08:39:10.160Z,49.96
2019-02-21T08:41:36.171Z,49.97
2019-02-21T08:44:02.163Z,49.97
2019-02-21T08:46:28.119Z,49.96
2019-02-21T08:48:54.179Z,49.94
2019-02-21T08:51:20.192Z,49.93
2019-02-21T08:53:46.195Z,49.88
2019-02-21T08:56:12.168Z,49.89
2019-02-21T08:58:38.144Z,49.94
2019-02-21T09:01:04.132Z,49.90
2019-02-21T09:03:30.103Z,49.91
2019-02-21T09:05:56.087Z,49.93
2019-02-21T09:08:32.623Z,49.95
2019-02-21T09:10:49.764Z,50.12
2019-02-21T09:13:15.763Z,50.12
2019-02-21T09:15:42.019Z,50.21
2019-02-21T09:18:08.151Z,50.21
2019-02-21T09:20:34.193Z,50.17
2019-02-21T09:23:00.212Z,50.34
2019-02-21T09:25:26.183Z,50.35
2019-02-21T09:27:52.294Z,50.37
2019-02-21T09:30:18.268Z,50.36
2019-02-21T09:32:44.343Z,50.37
2019-02-21T09:35:10.344Z,50.45
2019-02-21T09:37:36.388Z,50.38
2019-02-21T09:40:02.383Z,50.37
2019-02-21T09:42:29.479Z,50.42
2019-02-21T09:44:55.462Z,50.35
2019-02-21T09:47:21.432Z,50.40
2019-02-21T09:49:47.472Z,50.38
2019-02-21T09:52:13.463Z,50.40
2019-02-21T09:54:39.474Z,50.40
2019-02-21T09:57:12.786Z,50.42
2019-02-21T09:59:33.312Z,50.50
2019-02-21T10:01:59.347Z,50.42
2019-02-21T10:04:32.246Z,50.45
2019-02-21T10:06:53.044Z,50.43
2019-02-21T10:09:19.052Z,50.45
2019-02-21T10:11:45.063Z,50.47
2019-02-21T10:14:11.026Z,50.56
2019-02-21T10:16:37.042Z,50.55
2019-02-21T10:19:03.067Z,50.61
2019-02-21T10:21:29.040Z,50.66
2019-02-21T10:23:56.734Z,50.59
2019-02-21T10:26:22.991Z,50.56
2019-02-21T10:28:48.968Z,50.53
2019-02-21T10:31:14.959Z,50.68
2019-02-21T10:33:47.048Z,50.67
2019-02-21T10:36:08.677Z,50.68
2019-02-21T10:38:34.694Z,50.68
2019-02-21T10:41:00.666Z,50.84
2019-02-21T10:43:26.759Z,50.78
2019-02-21T10:45:52.766Z,50.92
2019-02-21T10:48:18.769Z,50.98
2019-02-21T10:50:44.758Z,50.84
2019-02-21T10:53:11.432Z,50.91
2019-02-21T10:55:37.527Z,50.89
2019-02-21T10:58:03.629Z,50.91
2019-02-21T11:00:29.609Z,50.85
2019-02-21T11:02:55.587Z,50.56
2019-02-21T11:05:21.560Z,50.54
2019-02-21T11:07:47.804Z,50.44
2019-02-21T11:10:13.876Z,50.36
2019-02-21T11:12:39.939Z,50.34
2019-02-21T11:15:05.925Z,50.43
2019-02-21T11:17:31.978Z,50.32
2019-02-21T11:19:57.945Z,50.34
2019-02-21T11:22:23.947Z,50.25
2019-02-21T11:24:49.959Z,50.29
2019-02-21T11:27:16.032Z,50.31
2019-02-21T11:29:42.119Z,50.27
2019-02-21T11:32:08.089Z,50.16
2019-02-21T11:34:34.176Z,50.34
2019-02-21T11:37:00.165Z,50.30
2019-02-21T11:39:26.190Z,50.27
2019-02-21T11:41:52.254Z,50.19
2019-02-21T11:44:18.305Z,50.25
2019-02-21T11:46:44.432Z,50.32
2019-02-21T11:49:10.418Z,50.21
2019-02-21T11:51:36.401Z,50.16
2019-02-21T11:54:02.399Z,50.26
2019-02-21T11:56:28.396Z,50.17
2019-02-21T11:58:54.371Z,50.21
2019-02-21T12:01:20.374Z,50.12
2019-02-21T12:03:46.415Z,50.14
2019-02-21T12:06:12.412Z,50.23
2019-02-21T12:08:38.392Z,50.30
2019-02-21T12:11:04.417Z,50.28
2019-02-21T12:13:30.420Z,50.04
2019-02-21T12:15:58.459Z,50.22
2019-02-21T12:18:24.151Z,50.26
2019-02-21T12:20:50.121Z,50.27
2019-02-21T12:23:17.788Z,50.17
2019-02-21T12:25:43.959Z,50.02
2019-02-21T12:28:09.947Z,50.09
2019-02-21T12:30:35.973Z,50.01
2019-02-21T12:33:01.955Z,50.00
2019-02-21T12:35:29.974Z,49.92
2019-02-21T12:37:55.753Z,50.05
2019-02-21T12:40:21.746Z,49.94
2019-02-21T12:42:48.337Z,49.94
2019-02-21T12:45:14.459Z,50.02
2019-02-21T12:47:49.559Z,49.81
2019-02-21T12:50:08.208Z,50.02
2019-02-21T12:52:34.311Z,50.11
2019-02-21T12:55:00.325Z,50.21
2019-02-21T12:57:26.370Z,50.00
2019-02-21T12:59:52.350Z,49.90
2019-02-21T13:02:18.316Z,49.88
2019-02-21T13:04:44.298Z,49.82
2019-02-21T13:07:10.311Z,50.07
2019-02-21T13:09:36.285Z,50.00
2019-02-21T13:12:02.274Z,49.81
2019-02-21T13:14:28.360Z,49.74
2019-02-21T13:16:54.359Z,49.71
2019-02-21T13:19:20.357Z,49.93
2019-02-21T13:21:46.347Z,49.89
2019-02-21T13:24:12.328Z,49.88
2019-02-21T13:26:38.811Z,49.75
2019-02-21T13:29:07.724Z,50.00
2019-02-21T13:31:33.765Z,49.84
2019-02-21T13:34:00.324Z,49.84
2019-02-21T13:36:26.468Z,49.75
2019-02-21T13:38:52.465Z,49.83
2019-02-21T13:41:18.479Z,49.62
2019-02-21T13:43:44.554Z,49.66
2019-02-21T13:46:10.554Z,49.62
2019-02-21T13:48:36.524Z,49.55
2019-02-21T13:51:02.510Z,49.46
2019-02-21T13:53:28.610Z,49.39
2019-02-21T13:55:54.607Z,49.41
2019-02-21T13:58:20.598Z,49.41
2019-02-21T14:00:46.683Z,49.41
2019-02-21T14:03:12.691Z,49.43
2019-02-21T14:05:38.759Z,49.39
2019-02-21T14:08:04.753Z,49.34
2019-02-21T14:10:30.817Z,49.36
2019-02-21T14:12:56.809Z,49.33
2019-02-21T14:15:22.850Z,49.34
2019-02-21T14:17:48.858Z,49.40
2019-02-21T14:20:14.900Z,49.38
2019-02-21T14:22:40.878Z,49.36
2019-02-21T14:25:06.867Z,49.42
2019-02-21T14:27:32.859Z,49.41
2019-02-21T14:29:58.927Z,49.38
2019-02-21T14:32:24.920Z,49.38
2019-02-21T14:34:51.004Z,49.42
2019-02-21T14:37:16.991Z,49.39
2019-02-21T14:39:43.043Z,49.41
2019-02-21T14:42:09.017Z,49.40
2019-02-21T14:44:34.989Z,49.46
2019-02-21T14:47:00.971Z,49.43
2019-02-21T14:49:26.978Z,49.44
2019-02-21T14:51:53.007Z,49.51
2019-02-21T14:54:18.993Z,49.48
2019-02-21T14:56:44.991Z,49.48
2019-02-21T14:59:10.964Z,49.46
2019-02-21T15:01:36.972Z,49.46
2019-02-21T15:04:03.036Z,49.47
2019-02-21T15:06:29.063Z,49.47
2019-02-21T15:08:55.095Z,49.49
2019-02-21T15:11:21.118Z,49.50
2019-02-21T15:13:47.123Z,49.51
2019-02-21T15:16:13.103Z,49.55
2019-02-21T15:18:39.078Z,49.54
2019-02-21T15:21:05.137Z,49.55
2019-02-21T15:23:31.192Z,49.52
2019-02-21T15:25:57.201Z,49.53
2019-02-21T15:28:23.217Z,49.54
2019-02-21T15:30:49.213Z,49.51
2019-02-21T15:33:15.752Z,49.60
2019-02-21T15:35:41.801Z,49.55
2019-02-21T15:38:17.140Z,49.54
2019-02-21T15:40:35.514Z,49.55
2019-02-21T15:43:01.526Z,49.56
2019-02-21T15:45:27.660Z,49.57
2019-02-21T15:47:53.694Z,49.77
2019-02-21T15:50:20.395Z,49.94
2019-02-21T15:52:46.599Z,49.72
2019-02-21T15:55:13.082Z,49.69
2019-02-21T15:57:39.261Z,49.74
2019-02-21T16:00:05.259Z,49.86
2019-02-21T16:02:31.282Z,49.89
2019-02-21T16:04:57.815Z,49.91
2019-02-21T16:07:23.819Z,49.91
2019-02-21T16:09:49.868Z,49.94
2019-02-21T16:12:16.236Z,49.92
2019-02-21T16:14:42.954Z,49.82
2019-02-21T16:17:08.999Z,49.73
2019-02-21T16:19:35.078Z,49.71
2019-02-21T16:22:02.313Z,49.73
2019-02-21T16:24:28.307Z,49.73
2019-02-21T16:26:54.806Z,49.71
2019-02-21T16:29:21.970Z,49.69
2019-02-21T16:31:48.187Z,49.68
2019-02-21T16:34:15.530Z,49.69
2019-02-21T16:36:41.547Z,49.68
2019-02-21T16:39:09.913Z,49.67
2019-02-21T16:41:36.718Z,49.68
2019-02-21T16:44:02.975Z,49.69
2019-02-21T16:46:28.948Z,49.66
2019-02-21T16:48:54.975Z,49.70
2019-02-21T16:51:22.234Z,49.63
2019-02-21T16:53:48.376Z,49.71
2019-02-21T16:56:14.395Z,49.71
2019-02-21T16:58:42.807Z,49.73
2019-02-21T17:01:08.192Z,49.71
2019-02-21T17:03:34.207Z,49.71
2019-02-21T17:06:00.199Z,49.70
2019-02-21T17:08:26.212Z,49.68
2019-02-21T17:10:52.261Z,49.69
2019-02-21T17:13:18.268Z,49.72
2019-02-21T17:15:44.265Z,49.72
2019-02-21T17:18:10.298Z,49.72
2019-02-21T17:20:36.309Z,49.68
2019-02-21T17:23:02.345Z,49.69
2019-02-21T17:25:28.354Z,49.67
2019-02-21T17:27:54.332Z,49.73
2019-02-21T17:30:20.315Z,49.82
2019-02-21T17:32:46.307Z,49.84
2019-02-21T17:35:12.318Z,49.80
2019-02-21T17:37:38.317Z,49.78
2019-02-21T17:40:04.313Z,49.85
2019-02-21T17:42:30.314Z,49.85
2019-02-21T17:44:56.298Z,49.95
2019-02-21T17:47:22.388Z,49.96
2019-02-21T17:49:48.402Z,49.88
2019-02-21T17:52:14.396Z,49.85
2019-02-21T17:54:40.397Z,49.79
2019-02-21T17:57:07.546Z,49.82
2019-02-21T17:59:33.526Z,49.79
2019-02-21T18:01:59.514Z,49.76
2019-02-21T18:04:25.495Z,49.77
2019-02-21T18:06:51.648Z,49.78
2019-02-21T18:09:17.668Z,49.78
2019-02-21T18:11:43.730Z,49.88
2019-02-21T18:14:09.808Z,50.17
2019-02-21T18:16:35.847Z,50.17
2019-02-21T18:19:01.911Z,50.12
2019-02-21T18:21:27.919Z,50.40
2019-02-21T18:23:53.926Z,50.26
2019-02-21T18:26:20.105Z,50.32
2019-02-21T18:28:46.098Z,50.36
2019-02-21T18:31:12.210Z,50.33
2019-02-21T18:33:38.204Z,50.39
2019-02-21T18:36:04.268Z,50.35
2019-02-21T18:38:30.261Z,50.36
2019-02-21T18:40:56.276Z,50.35
2019-02-21T18:43:22.336Z,50.35
2019-02-21T18:45:48.340Z,50.39
2019-02-21T18:48:14.403Z,50.38
2019-02-21T18:50:40.399Z,50.39
2019-02-21T18:53:06.388Z,50.41
2019-02-21T18:55:32.466Z,50.43
2019-02-21T18:57:59.526Z,50.45
2019-02-21T19:00:25.576Z,50.49
2019-02-21T19:02:51.604Z,50.50
2019-02-21T19:05:17.606Z,50.53
2019-02-21T19:07:43.702Z,50.51
2019-02-21T19:10:09.738Z,50.54
2019-02-21T19:12:35.808Z,50.59
2019-02-21T19:15:01.806Z,50.65
2019-02-21T19:17:27.799Z,50.67
2019-02-21T19:19:53.797Z,50.72
2019-02-21T19:22:19.831Z,50.90
2019-02-21T19:24:45.829Z,50.94
2019-02-21T19:27:11.906Z,51.01
2019-02-21T19:29:37.905Z,51.02
2019-02-21T19:32:03.930Z,51.02
2019-02-21T19:34:29.960Z,51.05
2019-02-21T19:36:56.087Z,51.07
2019-02-21T19:39:22.085Z,51.03
2019-02-21T19:41:48.194Z,51.07
2019-02-21T19:44:14.350Z,51.05
2019-02-21T19:46:40.429Z,51.12
2019-02-21T19:49:06.515Z,51.11
2019-02-21T19:51:32.556Z,51.12
2019-02-21T19:53:58.661Z,51.18
2019-02-21T19:56:24.692Z,51.15
2019-02-21T19:58:50.679Z,51.19
2019-02-21T20:01:16.685Z,51.22
2019-02-21T20:03:42.700Z,51.21
2019-02-21T20:06:08.709Z,51.30
2019-02-21T20:08:34.679Z,51.27
2019-02-21T20:11:00.667Z,51.31
2019-02-21T20:13:26.892Z,51.28
2019-02-21T20:15:52.884Z,51.25
2019-02-21T20:18:19.013Z,51.31
2019-02-21T20:20:45.084Z,51.28
2019-02-21T20:23:11.127Z,51.28
2019-02-21T20:25:37.120Z,51.27
2019-02-21T20:28:03.244Z,51.27
2019-02-21T20:30:29.223Z,51.32
2019-02-21T20:32:55.228Z,51.32
2019-02-21T20:35:21.235Z,51.52
2019-02-21T20:37:47.337Z,51.71
2019-02-21T20:40:13.354Z,51.66
2019-02-21T20:42:39.372Z,51.54
2019-02-21T20:45:05.352Z,54.41
2019-02-21T20:47:31.363Z,53.09
2019-02-21T20:49:57.415Z,52.58
2019-02-21T20:52:23.414Z,52.46
2019-02-21T20:54:49.471Z,52.56
2019-02-21T20:57:15.492Z,52.90
2019-02-21T20:59:41.490Z,52.90
2019-02-21T21:02:07.506Z,53.07
2019-02-21T21:04:33.519Z,53.36
2019-02-21T21:06:59.696Z,53.75
2019-02-21T21:09:25.704Z,53.69
2019-02-21T21:11:51.693Z,53.44
2019-02-21T21:14:17.692Z,53.15
2019-02-21T21:16:43.719Z,53.19
2019-02-21T21:19:09.860Z,53.30
2019-02-21T21:21:35.893Z,53.30
2019-02-21T21:24:01.891Z,53.05
2019-02-21T21:26:28.088Z,53.29
2019-02-21T21:28:54.514Z,52.86
2019-02-21T21:31:20.837Z,53.02
2019-02-21T21:33:47.015Z,52.74
2019-02-21T21:36:13.191Z,53.11
2019-02-21T21:38:39.237Z,53.06
2019-02-21T21:41:05.266Z,52.93
2019-02-21T21:43:31.308Z,52.86
2019-02-21T21:45:57.365Z,53.00
2019-02-21T21:48:23.517Z,52.97
2019-02-21T21:50:49.554Z,53.00
2019-02-21T21:53:15.584Z,53.09
2019-02-21T21:55:41.577Z,52.99
2019-02-21T21:58:07.569Z,52.97
2019-02-21T22:00:33.781Z,53.04
2019-02-21T22:02:59.798Z,52.92
2019-02-21T22:05:25.793Z,53.02
2019-02-21T22:07:51.824Z,54.43
2019-02-21T22:10:17.837Z,54.06
2019-02-21T22:12:43.923Z,53.95
2019-02-21T22:15:10.070Z,54.14
2019-02-21T22:17:36.069Z,54.22
2019-02-21T22:20:02.075Z,54.27
2019-02-21T22:22:28.043Z,54.33
2019-02-21T22:24:54.053Z,54.02
2019-02-21T22:27:20.153Z,54.32
2019-02-21T22:29:46.340Z,54.08
2019-02-21T22:32:12.315Z,54.19
2019-02-21T22:34:38.378Z,53.97
2019-02-21T22:37:04.401Z,54.45
2019-02-21T22:39:30.413Z,54.25
2019-02-21T22:41:56.389Z,54.51
2019-02-21T22:44:22.353Z,54.19
2019-02-21T22:46:48.438Z,54.47
2019-02-21T22:49:16.562Z,54.43
2019-02-21T22:51:42.162Z,54.55
2019-02-21T22:54:08.152Z,54.49
2019-02-21T22:56:34.143Z,54.74
2019-02-21T22:59:00.197Z,55.12
2019-02-21T23:01:26.235Z,55.11
2019-02-21T23:03:52.210Z,54.92
2019-02-21T23:06:18.312Z,55.22
2019-02-21T23:08:44.292Z,54.92
2019-02-21T23:11:10.384Z,55.33
2019-02-21T23:13:36.377Z,55.53
2019-02-21T23:16:02.379Z,55.51
2019-02-21T23:18:28.360Z,55.42
2019-02-21T23:20:54.365Z,55.61
2019-02-21T23:23:20.331Z,55.44
2019-02-21T23:25:46.331Z,55.70
2019-02-21T23:28:12.352Z,55.89
2019-02-21T23:30:38.341Z,55.59
2019-02-21T23:33:04.341Z,56.14
2019-02-21T23:35:30.320Z,55.48
2019-02-21T23:37:56.296Z,55.82
2019-02-21T23:40:22.274Z,55.85
2019-02-21T23:42:48.264Z,55.96
2019-02-21T23:45:14.251Z,55.82
2019-02-21T23:47:49.337Z,55.93
2019-02-21T23:50:08.039Z,56.00
2019-02-21T23:52:36.960Z,55.85
2019-02-21T23:55:03.052Z,55.86
2019-02-21T23:57:29.073Z,55.34
2019-02-21T23:59:55.048Z,55.44
